sensor_id;sensor_type;location;lat;lon;timestamp;P1;durP1;ratioP1;P2;durP2;ratioP2
45077;SDS011;60508;42.622;25.416;2022-08-19T00:00:24;13.88;;;6.43;;
45077;SDS011;60508;42.622;25.416;2022-08-19T00:02:51;7.63;;;6.60;;
45077;SDS011;60508;42.622;25.416;2022-08-19T00:05:17;8.52;;;5.88;;
45077;SDS011;60508;42.622;25.416;2022-08-19T00:07:44;11.00;;;6.85;;
45077;SDS011;60508;42.622;25.416;2022-08-19T00:10:12;11.07;;;7.07;;
45077;SDS011;60508;42.622;25.416;2022-08-19T00:12:39;8.07;;;6.23;;
45077;SDS011;60508;42.622;25.416;2022-08-19T00:15:07;7.13;;;5.65;;
45077;SDS011;60508;42.622;25.416;2022-08-19T00:17:40;9.93;;;6.00;;
45077;SDS011;60508;42.622;25.416;2022-08-19T00:20:09;12.65;;;7.03;;
45077;SDS011;60508;42.622;25.416;2022-08-19T00:22:37;6.03;;;5.43;;
45077;SDS011;60508;42.622;25.416;2022-08-19T00:25:05;8.07;;;5.65;;
45077;SDS011;60508;42.622;25.416;2022-08-19T00:27:32;6.10;;;5.35;;
45077;SDS011;60508;42.622;25.416;2022-08-19T00:29:58;11.65;;;6.55;;
45077;SDS011;60508;42.622;25.416;2022-08-19T00:32:24;10.25;;;6.82;;
45077;SDS011;60508;42.622;25.416;2022-08-19T00:34:51;8.82;;;6.13;;
45077;SDS011;60508;42.622;25.416;2022-08-19T00:37:19;10.98;;;6.55;;
45077;SDS011;60508;42.622;25.416;2022-08-19T00:39:49;11.10;;;7.07;;
45077;SDS011;60508;42.622;25.416;2022-08-19T00:42:17;8.20;;;5.72;;
45077;SDS011;60508;42.622;25.416;2022-08-19T00:44:44;8.38;;;5.80;;
45077;SDS011;60508;42.622;25.416;2022-08-19T00:47:10;13.90;;;6.15;;
45077;SDS011;60508;42.622;25.416;2022-08-19T00:52:08;17.60;;;6.65;;
45077;SDS011;60508;42.622;25.416;2022-08-19T00:54:38;11.35;;;6.65;;
45077;SDS011;60508;42.622;25.416;2022-08-19T00:57:06;8.02;;;6.57;;
45077;SDS011;60508;42.622;25.416;2022-08-19T00:59:35;13.38;;;7.22;;
45077;SDS011;60508;42.622;25.416;2022-08-19T01:02:04;9.40;;;7.22;;
45077;SDS011;60508;42.622;25.416;2022-08-19T01:04:30;7.78;;;6.32;;
45077;SDS011;60508;42.622;25.416;2022-08-19T01:06:57;11.38;;;7.07;;
45077;SDS011;60508;42.622;25.416;2022-08-19T01:09:23;12.10;;;7.10;;
45077;SDS011;60508;42.622;25.416;2022-08-19T01:11:50;7.68;;;6.32;;
45077;SDS011;60508;42.622;25.416;2022-08-19T01:14:16;10.90;;;7.05;;
45077;SDS011;60508;42.622;25.416;2022-08-19T01:16:45;11.38;;;7.07;;
45077;SDS011;60508;42.622;25.416;2022-08-19T01:19:20;10.73;;;6.68;;
45077;SDS011;60508;42.622;25.416;2022-08-19T01:22:02;8.40;;;6.43;;
45077;SDS011;60508;42.622;25.416;2022-08-19T01:24:29;9.23;;;5.22;;
45077;SDS011;60508;42.622;25.416;2022-08-19T01:26:56;9.18;;;7.00;;
45077;SDS011;60508;42.622;25.416;2022-08-19T01:29:22;6.80;;;6.10;;
45077;SDS011;60508;42.622;25.416;2022-08-19T01:31:48;7.55;;;6.13;;
45077;SDS011;60508;42.622;25.416;2022-08-19T01:34:19;11.07;;;7.15;;
45077;SDS011;60508;42.622;25.416;2022-08-19T01:36:46;10.55;;;6.50;;
45077;SDS011;60508;42.622;25.416;2022-08-19T01:39:16;12.23;;;7.80;;
45077;SDS011;60508;42.622;25.416;2022-08-19T01:41:46;15.00;;;7.53;;
45077;SDS011;60508;42.622;25.416;2022-08-19T01:44:13;9.82;;;6.38;;
45077;SDS011;60508;42.622;25.416;2022-08-19T01:46:41;9.30;;;6.22;;
45077;SDS011;60508;42.622;25.416;2022-08-19T01:49:08;6.55;;;5.90;;
45077;SDS011;60508;42.622;25.416;2022-08-19T01:51:34;10.13;;;6.20;;
45077;SDS011;60508;42.622;25.416;2022-08-19T01:54:01;8.13;;;5.45;;
45077;SDS011;60508;42.622;25.416;2022-08-19T01:56:27;9.60;;;6.72;;
45077;SDS011;60508;42.622;25.416;2022-08-19T01:58:54;18.15;;;6.57;;
45077;SDS011;60508;42.622;25.416;2022-08-19T02:01:23;13.57;;;6.63;;
45077;SDS011;60508;42.622;25.416;2022-08-19T02:03:49;14.05;;;6.63;;
45077;SDS011;60508;42.622;25.416;2022-08-19T02:06:14;8.65;;;6.20;;
45077;SDS011;60508;42.622;25.416;2022-08-19T02:08:42;12.35;;;6.20;;
45077;SDS011;60508;42.622;25.416;2022-08-19T02:11:17;10.35;;;6.32;;
45077;SDS011;60508;42.622;25.416;2022-08-19T02:13:46;6.85;;;6.18;;
45077;SDS011;60508;42.622;25.416;2022-08-19T02:16:12;9.98;;;5.75;;
45077;SDS011;60508;42.622;25.416;2022-08-19T02:18:38;9.07;;;6.25;;
45077;SDS011;60508;42.622;25.416;2022-08-19T02:21:04;9.65;;;6.78;;
45077;SDS011;60508;42.622;25.416;2022-08-19T02:23:31;8.82;;;6.28;;
45077;SDS011;60508;42.622;25.416;2022-08-19T02:25:57;12.32;;;7.28;;
45077;SDS011;60508;42.622;25.416;2022-08-19T02:28:23;7.88;;;5.28;;
45077;SDS011;60508;42.622;25.416;2022-08-19T02:30:49;13.02;;;5.72;;
45077;SDS011;60508;42.622;25.416;2022-08-19T02:33:16;7.43;;;6.60;;
45077;SDS011;60508;42.622;25.416;2022-08-19T02:35:43;7.53;;;6.40;;
45077;SDS011;60508;42.622;25.416;2022-08-19T02:38:10;10.70;;;5.25;;
45077;SDS011;60508;42.622;25.416;2022-08-19T02:40:57;8.90;;;6.13;;
45077;SDS011;60508;42.622;25.416;2022-08-19T02:43:26;9.40;;;6.30;;
45077;SDS011;60508;42.622;25.416;2022-08-19T02:45:53;10.93;;;5.28;;
45077;SDS011;60508;42.622;25.416;2022-08-19T02:48:19;11.80;;;6.65;;
45077;SDS011;60508;42.622;25.416;2022-08-19T02:50:47;7.95;;;6.13;;
45077;SDS011;60508;42.622;25.416;2022-08-19T02:53:24;8.13;;;6.38;;
45077;SDS011;60508;42.622;25.416;2022-08-19T02:55:53;8.90;;;6.47;;
45077;SDS011;60508;42.622;25.416;2022-08-19T02:58:20;18.67;;;6.53;;
45077;SDS011;60508;42.622;25.416;2022-08-19T03:00:49;8.38;;;6.05;;
45077;SDS011;60508;42.622;25.416;2022-08-19T03:03:18;10.43;;;6.13;;
45077;SDS011;60508;42.622;25.416;2022-08-19T03:05:44;11.07;;;6.50;;
45077;SDS011;60508;42.622;25.416;2022-08-19T03:08:11;12.55;;;6.32;;
45077;SDS011;60508;42.622;25.416;2022-08-19T03:10:42;12.93;;;6.57;;
45077;SDS011;60508;42.622;25.416;2022-08-19T03:13:13;11.52;;;7.18;;
45077;SDS011;60508;42.622;25.416;2022-08-19T03:15:42;12.43;;;6.97;;
45077;SDS011;60508;42.622;25.416;2022-08-19T03:18:13;8.73;;;6.80;;
45077;SDS011;60508;42.622;25.416;2022-08-19T03:20:43;8.23;;;6.63;;
45077;SDS011;60508;42.622;25.416;2022-08-19T03:23:11;6.30;;;5.70;;
45077;SDS011;60508;42.622;25.416;2022-08-19T03:25:41;7.40;;;6.30;;
45077;SDS011;60508;42.622;25.416;2022-08-19T03:28:11;22.25;;;7.25;;
45077;SDS011;60508;42.622;25.416;2022-08-19T03:30:38;12.20;;;5.93;;
45077;SDS011;60508;42.622;25.416;2022-08-19T03:33:10;11.20;;;6.25;;
45077;SDS011;60508;42.622;25.416;2022-08-19T03:35:39;8.38;;;5.55;;
45077;SDS011;60508;42.622;25.416;2022-08-19T03:38:06;5.75;;;4.72;;
45077;SDS011;60508;42.622;25.416;2022-08-19T03:40:32;7.07;;;6.03;;
45077;SDS011;60508;42.622;25.416;2022-08-19T03:43:02;9.05;;;6.18;;
45077;SDS011;60508;42.622;25.416;2022-08-19T03:45:29;6.80;;;6.10;;
45077;SDS011;60508;42.622;25.416;2022-08-19T03:47:55;8.77;;;6.57;;
45077;SDS011;60508;42.622;25.416;2022-08-19T03:50:21;15.70;;;6.57;;
45077;SDS011;60508;42.622;25.416;2022-08-19T03:52:48;11.30;;;6.15;;
45077;SDS011;60508;42.622;25.416;2022-08-19T03:55:17;10.00;;;5.50;;
45077;SDS011;60508;42.622;25.416;2022-08-19T03:57:43;6.53;;;5.50;;
45077;SDS011;60508;42.622;25.416;2022-08-19T04:00:11;7.18;;;6.47;;
45077;SDS011;60508;42.622;25.416;2022-08-19T04:02:38;16.98;;;7.93;;
45077;SDS011;60508;42.622;25.416;2022-08-19T04:05:04;13.90;;;7.60;;
45077;SDS011;60508;42.622;25.416;2022-08-19T04:07:31;10.50;;;6.18;;
45077;SDS011;60508;42.622;25.416;2022-08-19T04:09:57;10.27;;;6.50;;
45077;SDS011;60508;42.622;25.416;2022-08-19T04:12:23;11.98;;;6.45;;
45077;SDS011;60508;42.622;25.416;2022-08-19T04:14:49;9.02;;;6.38;;
45077;SDS011;60508;42.622;25.416;2022-08-19T04:17:14;9.30;;;5.68;;
45077;SDS011;60508;42.622;25.416;2022-08-19T04:19:40;14.27;;;6.43;;
45077;SDS011;60508;42.622;25.416;2022-08-19T04:22:08;8.50;;;7.03;;
45077;SDS011;60508;42.622;25.416;2022-08-19T04:24:36;10.07;;;6.90;;
45077;SDS011;60508;42.622;25.416;2022-08-19T04:27:02;15.88;;;7.63;;
45077;SDS011;60508;42.622;25.416;2022-08-19T04:29:29;14.43;;;7.18;;
45077;SDS011;60508;42.622;25.416;2022-08-19T04:31:56;11.95;;;6.57;;
45077;SDS011;60508;42.622;25.416;2022-08-19T04:34:24;10.82;;;6.07;;
45077;SDS011;60508;42.622;25.416;2022-08-19T04:36:52;11.70;;;6.07;;
45077;SDS011;60508;42.622;25.416;2022-08-19T04:39:21;12.68;;;6.32;;
45077;SDS011;60508;42.622;25.416;2022-08-19T04:42:10;11.65;;;5.53;;
45077;SDS011;60508;42.622;25.416;2022-08-19T04:44:55;14.73;;;7.63;;
45077;SDS011;60508;42.622;25.416;2022-08-19T04:47:21;13.85;;;7.18;;
45077;SDS011;60508;42.622;25.416;2022-08-19T04:49:48;10.25;;;6.88;;
45077;SDS011;60508;42.622;25.416;2022-08-19T04:52:14;11.95;;;7.00;;
45077;SDS011;60508;42.622;25.416;2022-08-19T04:54:40;16.20;;;7.07;;
45077;SDS011;60508;42.622;25.416;2022-08-19T04:57:07;12.75;;;6.13;;
45077;SDS011;60508;42.622;25.416;2022-08-19T04:59:35;16.30;;;6.30;;
45077;SDS011;60508;42.622;25.416;2022-08-19T05:02:03;8.93;;;6.05;;
45077;SDS011;60508;42.622;25.416;2022-08-19T05:04:30;12.57;;;6.20;;
45077;SDS011;60508;42.622;25.416;2022-08-19T05:06:56;10.27;;;6.30;;
45077;SDS011;60508;42.622;25.416;2022-08-19T05:09:23;12.93;;;6.32;;
45077;SDS011;60508;42.622;25.416;2022-08-19T05:11:49;11.70;;;6.03;;
45077;SDS011;60508;42.622;25.416;2022-08-19T05:14:18;15.05;;;6.25;;
45077;SDS011;60508;42.622;25.416;2022-08-19T05:16:45;11.32;;;6.25;;
45077;SDS011;60508;42.622;25.416;2022-08-19T05:19:11;13.15;;;6.25;;
45077;SDS011;60508;42.622;25.416;2022-08-19T05:21:56;13.00;;;6.47;;
45077;SDS011;60508;42.622;25.416;2022-08-19T05:24:41;8.73;;;7.10;;
45077;SDS011;60508;42.622;25.416;2022-08-19T05:27:06;14.77;;;7.82;;
45077;SDS011;60508;42.622;25.416;2022-08-19T05:29:33;14.25;;;7.40;;
45077;SDS011;60508;42.622;25.416;2022-08-19T05:32:03;16.02;;;6.80;;
45077;SDS011;60508;42.622;25.416;2022-08-19T05:36:58;9.57;;;6.53;;
45077;SDS011;60508;42.622;25.416;2022-08-19T05:39:27;16.10;;;7.07;;
45077;SDS011;60508;42.622;25.416;2022-08-19T05:41:57;7.25;;;6.55;;
45077;SDS011;60508;42.622;25.416;2022-08-19T05:44:25;18.10;;;6.78;;
45077;SDS011;60508;42.622;25.416;2022-08-19T05:46:57;6.93;;;6.15;;
45077;SDS011;60508;42.622;25.416;2022-08-19T05:49:25;12.10;;;8.07;;
45077;SDS011;60508;42.622;25.416;2022-08-19T05:51:52;12.60;;;6.60;;
45077;SDS011;60508;42.622;25.416;2022-08-19T05:54:20;11.73;;;7.38;;
45077;SDS011;60508;42.622;25.416;2022-08-19T05:56:46;13.30;;;6.82;;
45077;SDS011;60508;42.622;25.416;2022-08-19T05:59:14;18.40;;;7.38;;
45077;SDS011;60508;42.622;25.416;2022-08-19T06:01:42;15.70;;;6.05;;
45077;SDS011;60508;42.622;25.416;2022-08-19T06:04:11;18.42;;;6.28;;
45077;SDS011;60508;42.622;25.416;2022-08-19T06:06:39;10.90;;;5.95;;
45077;SDS011;60508;42.622;25.416;2022-08-19T06:09:05;24.38;;;6.97;;
45077;SDS011;60508;42.622;25.416;2022-08-19T06:11:40;15.30;;;6.63;;
45077;SDS011;60508;42.622;25.416;2022-08-19T06:14:12;7.47;;;6.40;;
45077;SDS011;60508;42.622;25.416;2022-08-19T06:16:40;11.40;;;6.78;;
45077;SDS011;60508;42.622;25.416;2022-08-19T06:19:08;6.43;;;5.78;;
45077;SDS011;60508;42.622;25.416;2022-08-19T06:21:38;14.20;;;6.60;;
45077;SDS011;60508;42.622;25.416;2022-08-19T06:24:05;10.90;;;5.22;;
45077;SDS011;60508;42.622;25.416;2022-08-19T06:26:34;8.27;;;5.70;;
45077;SDS011;60508;42.622;25.416;2022-08-19T06:29:02;7.78;;;5.78;;
45077;SDS011;60508;42.622;25.416;2022-08-19T06:31:32;9.55;;;6.28;;
45077;SDS011;60508;42.622;25.416;2022-08-19T06:33:59;9.40;;;5.55;;
45077;SDS011;60508;42.622;25.416;2022-08-19T06:36:31;8.50;;;6.20;;
45077;SDS011;60508;42.622;25.416;2022-08-19T06:39:06;10.85;;;6.85;;
45077;SDS011;60508;42.622;25.416;2022-08-19T06:41:34;10.93;;;6.35;;
45077;SDS011;60508;42.622;25.416;2022-08-19T06:44:02;12.90;;;6.30;;
45077;SDS011;60508;42.622;25.416;2022-08-19T06:46:30;11.32;;;5.95;;
45077;SDS011;60508;42.622;25.416;2022-08-19T06:48:56;26.48;;;5.63;;
45077;SDS011;60508;42.622;25.416;2022-08-19T06:51:23;10.95;;;6.60;;
45077;SDS011;60508;42.622;25.416;2022-08-19T06:53:50;9.70;;;6.07;;
45077;SDS011;60508;42.622;25.416;2022-08-19T06:56:19;11.48;;;6.03;;
45077;SDS011;60508;42.622;25.416;2022-08-19T06:58:47;15.45;;;5.78;;
45077;SDS011;60508;42.622;25.416;2022-08-19T07:01:17;8.48;;;5.40;;
45077;SDS011;60508;42.622;25.416;2022-08-19T07:03:43;10.23;;;5.75;;
45077;SDS011;60508;42.622;25.416;2022-08-19T07:06:13;16.83;;;5.90;;
45077;SDS011;60508;42.622;25.416;2022-08-19T07:08:46;8.60;;;4.93;;
45077;SDS011;60508;42.622;25.416;2022-08-19T07:11:14;14.43;;;7.20;;
45077;SDS011;60508;42.622;25.416;2022-08-19T07:13:43;8.98;;;5.28;;
45077;SDS011;60508;42.622;25.416;2022-08-19T07:16:12;12.40;;;6.05;;
45077;SDS011;60508;42.622;25.416;2022-08-19T07:18:42;8.48;;;5.65;;
45077;SDS011;60508;42.622;25.416;2022-08-19T07:21:11;8.63;;;5.38;;
45077;SDS011;60508;42.622;25.416;2022-08-19T07:23:42;9.25;;;5.15;;
45077;SDS011;60508;42.622;25.416;2022-08-19T07:26:10;12.88;;;6.18;;
45077;SDS011;60508;42.622;25.416;2022-08-19T07:28:40;8.65;;;5.03;;
45077;SDS011;60508;42.622;25.416;2022-08-19T07:33:39;8.07;;;5.35;;
45077;SDS011;60508;42.622;25.416;2022-08-19T07:36:07;10.10;;;5.30;;
45077;SDS011;60508;42.622;25.416;2022-08-19T07:38:39;7.90;;;5.45;;
45077;SDS011;60508;42.622;25.416;2022-08-19T07:43:35;7.18;;;4.80;;
45077;SDS011;60508;42.622;25.416;2022-08-19T07:46:02;8.88;;;4.85;;
45077;SDS011;60508;42.622;25.416;2022-08-19T07:48:28;7.53;;;5.68;;
45077;SDS011;60508;42.622;25.416;2022-08-19T07:50:55;9.50;;;5.00;;
45077;SDS011;60508;42.622;25.416;2022-08-19T07:53:31;12.70;;;5.75;;
45077;SDS011;60508;42.622;25.416;2022-08-19T07:56:00;8.85;;;4.82;;
45077;SDS011;60508;42.622;25.416;2022-08-19T07:58:30;8.07;;;5.80;;
45077;SDS011;60508;42.622;25.416;2022-08-19T08:00:58;7.95;;;4.80;;
45077;SDS011;60508;42.622;25.416;2022-08-19T08:03:24;5.43;;;4.63;;
45077;SDS011;60508;42.622;25.416;2022-08-19T08:06:14;5.75;;;4.30;;
45077;SDS011;60508;42.622;25.416;2022-08-19T08:09:03;11.73;;;6.15;;
45077;SDS011;60508;42.622;25.416;2022-08-19T08:11:54;5.65;;;4.68;;
45077;SDS011;60508;42.622;25.416;2022-08-19T08:14:24;9.45;;;5.03;;
45077;SDS011;60508;42.622;25.416;2022-08-19T08:16:52;6.10;;;4.82;;
45077;SDS011;60508;42.622;25.416;2022-08-19T08:19:20;11.82;;;4.10;;
45077;SDS011;60508;42.622;25.416;2022-08-19T08:21:47;8.00;;;4.20;;
45077;SDS011;60508;42.622;25.416;2022-08-19T08:24:14;6.97;;;4.50;;
45077;SDS011;60508;42.622;25.416;2022-08-19T08:26:41;7.93;;;5.07;;
45077;SDS011;60508;42.622;25.416;2022-08-19T08:29:10;8.10;;;5.03;;
45077;SDS011;60508;42.622;25.416;2022-08-19T08:31:41;9.73;;;4.72;;
45077;SDS011;60508;42.622;25.416;2022-08-19T08:34:10;5.95;;;4.32;;
45077;SDS011;60508;42.622;25.416;2022-08-19T08:36:37;16.02;;;5.75;;
45077;SDS011;60508;42.622;25.416;2022-08-19T08:39:14;37.92;;;6.63;;
45077;SDS011;60508;42.622;25.416;2022-08-19T08:41:52;6.03;;;5.13;;
45077;SDS011;60508;42.622;25.416;2022-08-19T08:44:38;6.03;;;4.85;;
45077;SDS011;60508;42.622;25.416;2022-08-19T08:47:12;5.45;;;4.78;;
45077;SDS011;60508;42.622;25.416;2022-08-19T08:52:22;7.40;;;4.68;;
45077;SDS011;60508;42.622;25.416;2022-08-19T08:54:52;6.00;;;4.88;;
45077;SDS011;60508;42.622;25.416;2022-08-19T08:59:52;8.00;;;4.13;;
45077;SDS011;60508;42.622;25.416;2022-08-19T09:02:20;6.70;;;4.80;;
45077;SDS011;60508;42.622;25.416;2022-08-19T09:04:46;9.68;;;5.22;;
45077;SDS011;60508;42.622;25.416;2022-08-19T09:09:56;7.70;;;4.35;;
45077;SDS011;60508;42.622;25.416;2022-08-19T09:15:15;6.05;;;4.93;;
45077;SDS011;60508;42.622;25.416;2022-08-19T09:17:48;6.50;;;4.70;;
45077;SDS011;60508;42.622;25.416;2022-08-19T09:20:20;6.63;;;5.35;;
45077;SDS011;60508;42.622;25.416;2022-08-19T09:22:48;6.53;;;5.13;;
45077;SDS011;60508;42.622;25.416;2022-08-19T09:25:16;8.25;;;5.20;;
45077;SDS011;60508;42.622;25.416;2022-08-19T09:27:43;3.97;;;3.53;;
45077;SDS011;60508;42.622;25.416;2022-08-19T09:30:11;9.30;;;4.43;;
45077;SDS011;60508;42.622;25.416;2022-08-19T09:33:05;6.95;;;4.30;;
45077;SDS011;60508;42.622;25.416;2022-08-19T09:35:31;14.82;;;4.60;;
45077;SDS011;60508;42.622;25.416;2022-08-19T09:37:59;5.25;;;4.10;;
45077;SDS011;60508;42.622;25.416;2022-08-19T09:40:29;8.95;;;5.60;;
45077;SDS011;60508;42.622;25.416;2022-08-19T09:42:56;11.90;;;4.93;;
45077;SDS011;60508;42.622;25.416;2022-08-19T09:45:25;11.05;;;8.38;;
45077;SDS011;60508;42.622;25.416;2022-08-19T09:47:52;8.98;;;6.15;;
45077;SDS011;60508;42.622;25.416;2022-08-19T09:50:19;4.55;;;4.13;;
45077;SDS011;60508;42.622;25.416;2022-08-19T09:52:45;7.32;;;4.88;;
45077;SDS011;60508;42.622;25.416;2022-08-19T09:55:12;5.97;;;4.45;;
45077;SDS011;60508;42.622;25.416;2022-08-19T09:57:37;6.05;;;4.55;;
45077;SDS011;60508;42.622;25.416;2022-08-19T10:00:05;7.85;;;4.13;;
45077;SDS011;60508;42.622;25.416;2022-08-19T10:04:59;10.32;;;3.97;;
45077;SDS011;60508;42.622;25.416;2022-08-19T10:07:43;4.35;;;3.00;;
45077;SDS011;60508;42.622;25.416;2022-08-19T10:10:10;7.75;;;3.95;;
45077;SDS011;60508;42.622;25.416;2022-08-19T10:12:36;6.07;;;4.93;;
45077;SDS011;60508;42.622;25.416;2022-08-19T10:15:04;6.43;;;3.90;;
45077;SDS011;60508;42.622;25.416;2022-08-19T10:19:59;5.60;;;2.90;;
45077;SDS011;60508;42.622;25.416;2022-08-19T10:22:25;6.95;;;3.63;;
45077;SDS011;60508;42.622;25.416;2022-08-19T10:24:51;6.50;;;3.33;;
45077;SDS011;60508;42.622;25.416;2022-08-19T10:27:17;14.75;;;4.40;;
45077;SDS011;60508;42.622;25.416;2022-08-19T10:29:43;6.88;;;3.92;;
45077;SDS011;60508;42.622;25.416;2022-08-19T10:32:09;4.15;;;3.75;;
45077;SDS011;60508;42.622;25.416;2022-08-19T10:34:36;10.50;;;3.10;;
45077;SDS011;60508;42.622;25.416;2022-08-19T10:37:04;5.10;;;3.38;;
45077;SDS011;60508;42.622;25.416;2022-08-19T10:39:32;8.45;;;4.00;;
45077;SDS011;60508;42.622;25.416;2022-08-19T10:42:04;12.27;;;4.43;;
45077;SDS011;60508;42.622;25.416;2022-08-19T10:44:33;5.40;;;3.30;;
45077;SDS011;60508;42.622;25.416;2022-08-19T10:47:00;14.05;;;3.53;;
45077;SDS011;60508;42.622;25.416;2022-08-19T10:49:27;3.58;;;3.28;;
45077;SDS011;60508;42.622;25.416;2022-08-19T10:51:53;7.85;;;4.35;;
45077;SDS011;60508;42.622;25.416;2022-08-19T10:54:38;4.88;;;3.70;;
45077;SDS011;60508;42.622;25.416;2022-08-19T10:57:22;3.88;;;3.30;;
45077;SDS011;60508;42.622;25.416;2022-08-19T10:59:55;6.07;;;3.42;;
45077;SDS011;60508;42.622;25.416;2022-08-19T11:02:21;6.28;;;3.42;;
45077;SDS011;60508;42.622;25.416;2022-08-19T11:04:48;3.63;;;3.33;;
45077;SDS011;60508;42.622;25.416;2022-08-19T11:07:15;8.38;;;3.20;;
45077;SDS011;60508;42.622;25.416;2022-08-19T11:09:42;4.95;;;3.15;;
45077;SDS011;60508;42.622;25.416;2022-08-19T11:12:09;4.50;;;3.03;;
45077;SDS011;60508;42.622;25.416;2022-08-19T11:14:35;3.80;;;3.47;;
45077;SDS011;60508;42.622;25.416;2022-08-19T11:17:02;3.95;;;3.33;;
45077;SDS011;60508;42.622;25.416;2022-08-19T11:19:30;5.63;;;3.43;;
45077;SDS011;60508;42.622;25.416;2022-08-19T11:21:56;5.78;;;3.20;;
45077;SDS011;60508;42.622;25.416;2022-08-19T11:24:24;3.60;;;3.30;;
45077;SDS011;60508;42.622;25.416;2022-08-19T11:26:51;3.78;;;3.00;;
45077;SDS011;60508;42.622;25.416;2022-08-19T11:29:19;6.63;;;3.77;;
45077;SDS011;60508;42.622;25.416;2022-08-19T11:31:48;5.85;;;4.05;;
45077;SDS011;60508;42.622;25.416;2022-08-19T11:34:17;11.57;;;4.57;;
45077;SDS011;60508;42.622;25.416;2022-08-19T11:36:46;5.75;;;3.72;;
45077;SDS011;60508;42.622;25.416;2022-08-19T11:39:14;8.15;;;3.20;;
45077;SDS011;60508;42.622;25.416;2022-08-19T11:41:42;3.90;;;2.92;;
45077;SDS011;60508;42.622;25.416;2022-08-19T11:44:09;7.10;;;3.67;;
45077;SDS011;60508;42.622;25.416;2022-08-19T11:46:36;6.32;;;3.47;;
45077;SDS011;60508;42.622;25.416;2022-08-19T11:49:03;10.43;;;3.60;;
45077;SDS011;60508;42.622;25.416;2022-08-19T11:51:31;8.25;;;3.83;;
45077;SDS011;60508;42.622;25.416;2022-08-19T11:53:58;8.45;;;3.60;;
45077;SDS011;60508;42.622;25.416;2022-08-19T11:56:25;3.90;;;3.22;;
45077;SDS011;60508;42.622;25.416;2022-08-19T11:58:53;3.70;;;3.37;;
45077;SDS011;60508;42.622;25.416;2022-08-19T12:01:22;10.63;;;3.38;;
45077;SDS011;60508;42.622;25.416;2022-08-19T12:03:50;4.75;;;3.63;;
45077;SDS011;60508;42.622;25.416;2022-08-19T12:06:21;3.88;;;3.55;;
45077;SDS011;60508;42.622;25.416;2022-08-19T12:08:55;10.15;;;3.33;;
45077;SDS011;60508;42.622;25.416;2022-08-19T12:11:22;3.70;;;3.33;;
45077;SDS011;60508;42.622;25.416;2022-08-19T12:13:49;6.40;;;3.90;;
45077;SDS011;60508;42.622;25.416;2022-08-19T12:16:17;3.10;;;2.78;;
45077;SDS011;60508;42.622;25.416;2022-08-19T12:18:48;8.77;;;3.72;;
45077;SDS011;60508;42.622;25.416;2022-08-19T12:21:17;5.72;;;3.40;;
45077;SDS011;60508;42.622;25.416;2022-08-19T12:23:47;5.03;;;3.72;;
45077;SDS011;60508;42.622;25.416;2022-08-19T12:28:42;3.90;;;3.58;;
45077;SDS011;60508;42.622;25.416;2022-08-19T12:31:08;3.75;;;3.40;;
45077;SDS011;60508;42.622;25.416;2022-08-19T12:33:37;3.83;;;3.50;;
45077;SDS011;60508;42.622;25.416;2022-08-19T12:36:05;3.47;;;3.17;;
45077;SDS011;60508;42.622;25.416;2022-08-19T12:38:33;10.60;;;3.88;;
45077;SDS011;60508;42.622;25.416;2022-08-19T12:40:59;6.50;;;3.45;;
45077;SDS011;60508;42.622;25.416;2022-08-19T12:43:26;6.47;;;3.35;;
45077;SDS011;60508;42.622;25.416;2022-08-19T12:45:52;12.10;;;3.10;;
45077;SDS011;60508;42.622;25.416;2022-08-19T12:48:18;5.57;;;3.35;;
45077;SDS011;60508;42.622;25.416;2022-08-19T12:50:44;8.30;;;3.28;;
45077;SDS011;60508;42.622;25.416;2022-08-19T12:53:11;6.38;;;3.92;;
45077;SDS011;60508;42.622;25.416;2022-08-19T12:55:38;7.22;;;3.00;;
45077;SDS011;60508;42.622;25.416;2022-08-19T12:58:04;4.28;;;3.38;;
45077;SDS011;60508;42.622;25.416;2022-08-19T13:00:30;5.68;;;3.08;;
45077;SDS011;60508;42.622;25.416;2022-08-19T13:02:58;3.88;;;3.30;;
45077;SDS011;60508;42.622;25.416;2022-08-19T13:05:27;4.38;;;2.60;;
45077;SDS011;60508;42.622;25.416;2022-08-19T13:07:55;4.88;;;3.83;;
45077;SDS011;60508;42.622;25.416;2022-08-19T13:10:24;4.32;;;3.92;;
45077;SDS011;60508;42.622;25.416;2022-08-19T13:12:53;4.93;;;3.85;;
45077;SDS011;60508;42.622;25.416;2022-08-19T13:15:20;5.25;;;3.20;;
45077;SDS011;60508;42.622;25.416;2022-08-19T13:17:48;4.05;;;2.85;;
45077;SDS011;60508;42.622;25.416;2022-08-19T13:20:16;4.30;;;3.25;;
45077;SDS011;60508;42.622;25.416;2022-08-19T13:22:44;5.70;;;3.00;;
45077;SDS011;60508;42.622;25.416;2022-08-19T13:25:11;7.15;;;3.15;;
45077;SDS011;60508;42.622;25.416;2022-08-19T13:27:38;2.90;;;2.70;;
45077;SDS011;60508;42.622;25.416;2022-08-19T13:30:06;7.25;;;3.30;;
45077;SDS011;60508;42.622;25.416;2022-08-19T13:32:52;5.35;;;3.22;;
45077;SDS011;60508;42.622;25.416;2022-08-19T13:38:18;3.55;;;2.75;;
45077;SDS011;60508;42.622;25.416;2022-08-19T13:40:46;4.78;;;3.00;;
45077;SDS011;60508;42.622;25.416;2022-08-19T13:43:14;5.22;;;2.75;;
45077;SDS011;60508;42.622;25.416;2022-08-19T13:45:40;3.20;;;2.90;;
45077;SDS011;60508;42.622;25.416;2022-08-19T13:48:06;3.80;;;3.05;;
45077;SDS011;60508;42.622;25.416;2022-08-19T13:50:35;5.32;;;3.28;;
45077;SDS011;60508;42.622;25.416;2022-08-19T13:53:07;13.10;;;3.25;;
45077;SDS011;60508;42.622;25.416;2022-08-19T13:55:34;3.22;;;2.92;;
45077;SDS011;60508;42.622;25.416;2022-08-19T13:58:01;5.47;;;3.40;;
45077;SDS011;60508;42.622;25.416;2022-08-19T14:00:29;3.30;;;2.72;;
45077;SDS011;60508;42.622;25.416;2022-08-19T14:03:01;4.55;;;3.10;;
45077;SDS011;60508;42.622;25.416;2022-08-19T14:05:28;4.63;;;3.10;;
45077;SDS011;60508;42.622;25.416;2022-08-19T14:07:55;3.55;;;3.10;;
45077;SDS011;60508;42.622;25.416;2022-08-19T14:10:22;4.32;;;3.30;;
45077;SDS011;60508;42.622;25.416;2022-08-19T14:12:49;6.15;;;4.20;;
45077;SDS011;60508;42.622;25.416;2022-08-19T14:15:18;7.43;;;3.13;;
45077;SDS011;60508;42.622;25.416;2022-08-19T14:17:45;7.88;;;3.00;;
45077;SDS011;60508;42.622;25.416;2022-08-19T14:20:14;12.88;;;3.38;;
45077;SDS011;60508;42.622;25.416;2022-08-19T14:22:41;2.90;;;2.63;;
45077;SDS011;60508;42.622;25.416;2022-08-19T14:25:09;4.20;;;2.95;;
45077;SDS011;60508;42.622;25.416;2022-08-19T14:27:37;5.30;;;2.50;;
45077;SDS011;60508;42.622;25.416;2022-08-19T14:30:06;3.13;;;2.80;;
45077;SDS011;60508;42.622;25.416;2022-08-19T14:32:34;6.07;;;3.15;;
45077;SDS011;60508;42.622;25.416;2022-08-19T14:35:00;3.30;;;2.53;;
45077;SDS011;60508;42.622;25.416;2022-08-19T14:37:27;9.60;;;2.45;;
45077;SDS011;60508;42.622;25.416;2022-08-19T14:39:53;6.13;;;2.60;;
45077;SDS011;60508;42.622;25.416;2022-08-19T14:42:19;2.67;;;2.35;;
45077;SDS011;60508;42.622;25.416;2022-08-19T14:44:45;4.70;;;2.72;;
45077;SDS011;60508;42.622;25.416;2022-08-19T14:47:11;4.57;;;2.70;;
45077;SDS011;60508;42.622;25.416;2022-08-19T14:49:37;3.65;;;2.13;;
45077;SDS011;60508;42.622;25.416;2022-08-19T14:52:04;6.93;;;2.42;;
45077;SDS011;60508;42.622;25.416;2022-08-19T14:54:31;3.42;;;2.35;;
45077;SDS011;60508;42.622;25.416;2022-08-19T14:56:57;6.07;;;2.38;;
45077;SDS011;60508;42.622;25.416;2022-08-19T14:59:23;3.58;;;2.85;;
45077;SDS011;60508;42.622;25.416;2022-08-19T15:01:49;5.35;;;2.70;;
45077;SDS011;60508;42.622;25.416;2022-08-19T15:04:15;3.17;;;2.83;;
45077;SDS011;60508;42.622;25.416;2022-08-19T15:06:41;7.05;;;2.70;;
45077;SDS011;60508;42.622;25.416;2022-08-19T15:09:08;5.38;;;2.72;;